sensor_id;sensor_type;location;lat;lon;timestamp;P1;durP1;ratioP1;P2;durP2;ratioP2
66298;SDS011;53098;47.658;8.578;2022-11-14T00:02:02;19.77;;;10.70;;
66298;SDS011;53098;47.658;8.578;2022-11-14T00:04:27;20.23;;;11.85;;
66298;SDS011;53098;47.658;8.578;2022-11-14T00:06:53;19.88;;;10.13;;
66298;SDS011;53098;47.658;8.578;2022-11-14T00:09:18;21.07;;;10.90;;
66298;SDS011;53098;47.658;8.578;2022-11-14T00:11:43;19.97;;;10.67;;
66298;SDS011;53098;47.658;8.578;2022-11-14T00:14:09;20.80;;;11.00;;
66298;SDS011;53098;47.658;8.578;2022-11-14T00:16:35;19.48;;;10.75;;
66298;SDS011;53098;47.658;8.578;2022-11-14T00:19:00;22.27;;;10.80;;
66298;SDS011;53098;47.658;8.578;2022-11-14T00:21:25;21.07;;;10.70;;
66298;SDS011;53098;47.658;8.578;2022-11-14T00:23:51;19.42;;;10.45;;
66298;SDS011;53098;47.658;8.578;2022-11-14T00:26:16;22.33;;;11.60;;
66298;SDS011;53098;47.658;8.578;2022-11-14T00:28:41;17.30;;;10.80;;
66298;SDS011;53098;47.658;8.578;2022-11-14T00:31:08;18.27;;;10.87;;
66298;SDS011;53098;47.658;8.578;2022-11-14T00:33:33;22.40;;;11.55;;
66298;SDS011;53098;47.658;8.578;2022-11-14T00:35:58;18.43;;;9.97;;
66298;SDS011;53098;47.658;8.578;2022-11-14T00:38:23;21.63;;;11.57;;
66298;SDS011;53098;47.658;8.578;2022-11-14T00:40:49;20.37;;;10.90;;
66298;SDS011;53098;47.658;8.578;2022-11-14T00:43:14;19.97;;;11.57;;
66298;SDS011;53098;47.658;8.578;2022-11-14T00:45:41;20.17;;;11.17;;
66298;SDS011;53098;47.658;8.578;2022-11-14T00:48:06;26.02;;;11.82;;
66298;SDS011;53098;47.658;8.578;2022-11-14T00:50:32;19.90;;;11.60;;
66298;SDS011;53098;47.658;8.578;2022-11-14T00:52:57;22.30;;;12.10;;
66298;SDS011;53098;47.658;8.578;2022-11-14T00:55:22;19.37;;;10.53;;
66298;SDS011;53098;47.658;8.578;2022-11-14T00:57:47;21.20;;;10.93;;
66298;SDS011;53098;47.658;8.578;2022-11-14T01:00:13;19.73;;;10.80;;
66298;SDS011;53098;47.658;8.578;2022-11-14T01:02:38;20.52;;;11.65;;
66298;SDS011;53098;47.658;8.578;2022-11-14T01:05:04;23.35;;;12.25;;
66298;SDS011;53098;47.658;8.578;2022-11-14T01:07:29;19.23;;;10.73;;
66298;SDS011;53098;47.658;8.578;2022-11-14T01:09:54;19.65;;;11.10;;
66298;SDS011;53098;47.658;8.578;2022-11-14T01:12:20;20.97;;;11.07;;
66298;SDS011;53098;47.658;8.578;2022-11-14T01:14:45;21.07;;;11.47;;
66298;SDS011;53098;47.658;8.578;2022-11-14T01:17:10;22.75;;;10.93;;
66298;SDS011;53098;47.658;8.578;2022-11-14T01:19:36;19.35;;;10.63;;
66298;SDS011;53098;47.658;8.578;2022-11-14T01:22:01;19.67;;;10.57;;
66298;SDS011;53098;47.658;8.578;2022-11-14T01:24:26;18.97;;;10.37;;
66298;SDS011;53098;47.658;8.578;2022-11-14T01:26:53;19.40;;;10.75;;
66298;SDS011;53098;47.658;8.578;2022-11-14T01:29:19;19.75;;;11.63;;
66298;SDS011;53098;47.658;8.578;2022-11-14T01:31:44;17.77;;;9.67;;
66298;SDS011;53098;47.658;8.578;2022-11-14T01:34:09;18.63;;;10.53;;
66298;SDS011;53098;47.658;8.578;2022-11-14T01:36:34;18.10;;;9.27;;
66298;SDS011;53098;47.658;8.578;2022-11-14T01:39:00;17.60;;;10.33;;
66298;SDS011;53098;47.658;8.578;2022-11-14T01:41:28;17.70;;;9.88;;
66298;SDS011;53098;47.658;8.578;2022-11-14T01:43:53;19.83;;;10.03;;
66298;SDS011;53098;47.658;8.578;2022-11-14T01:46:29;17.08;;;11.38;;
66298;SDS011;53098;47.658;8.578;2022-11-14T01:51:33;16.08;;;9.23;;
66298;SDS011;53098;47.658;8.578;2022-11-14T01:54:01;18.38;;;9.65;;
66298;SDS011;53098;47.658;8.578;2022-11-14T01:56:32;21.50;;;9.85;;
66298;SDS011;53098;47.658;8.578;2022-11-14T01:59:00;19.55;;;11.05;;
66298;SDS011;53098;47.658;8.578;2022-11-14T02:01:28;19.08;;;10.90;;
66298;SDS011;53098;47.658;8.578;2022-11-14T02:03:54;18.60;;;10.02;;
66298;SDS011;53098;47.658;8.578;2022-11-14T02:06:20;21.13;;;11.73;;
66298;SDS011;53098;47.658;8.578;2022-11-14T02:08:47;21.52;;;11.70;;
66298;SDS011;53098;47.658;8.578;2022-11-14T02:11:12;21.95;;;11.93;;
66298;SDS011;53098;47.658;8.578;2022-11-14T02:13:37;18.40;;;9.60;;
66298;SDS011;53098;47.658;8.578;2022-11-14T02:16:03;21.80;;;11.63;;
66298;SDS011;53098;47.658;8.578;2022-11-14T02:18:29;20.42;;;11.40;;
66298;SDS011;53098;47.658;8.578;2022-11-14T02:20:54;21.90;;;11.43;;
66298;SDS011;53098;47.658;8.578;2022-11-14T02:23:29;24.90;;;11.97;;
66298;SDS011;53098;47.658;8.578;2022-11-14T02:25:55;24.10;;;12.15;;
66298;SDS011;53098;47.658;8.578;2022-11-14T02:28:20;23.33;;;12.32;;
66298;SDS011;53098;47.658;8.578;2022-11-14T02:30:46;24.80;;;12.75;;
66298;SDS011;53098;47.658;8.578;2022-11-14T02:33:11;25.67;;;13.90;;
66298;SDS011;53098;47.658;8.578;2022-11-14T02:35:37;24.43;;;12.87;;
66298;SDS011;53098;47.658;8.578;2022-11-14T02:38:02;25.85;;;13.18;;
66298;SDS011;53098;47.658;8.578;2022-11-14T02:40:28;24.25;;;12.68;;
66298;SDS011;53098;47.658;8.578;2022-11-14T02:42:53;26.70;;;13.57;;
66298;SDS011;53098;47.658;8.578;2022-11-14T02:45:18;25.43;;;13.97;;
66298;SDS011;53098;47.658;8.578;2022-11-14T02:47:44;26.67;;;13.55;;
66298;SDS011;53098;47.658;8.578;2022-11-14T02:50:09;25.33;;;12.90;;
66298;SDS011;53098;47.658;8.578;2022-11-14T02:52:34;27.57;;;14.13;;
66298;SDS011;53098;47.658;8.578;2022-11-14T02:55:00;26.03;;;13.40;;
66298;SDS011;53098;47.658;8.578;2022-11-14T02:57:25;28.63;;;13.97;;
66298;SDS011;53098;47.658;8.578;2022-11-14T02:59:50;25.53;;;13.97;;
66298;SDS011;53098;47.658;8.578;2022-11-14T03:02:16;28.40;;;14.93;;
66298;SDS011;53098;47.658;8.578;2022-11-14T03:04:41;28.33;;;15.30;;
66298;SDS011;53098;47.658;8.578;2022-11-14T03:07:06;30.73;;;14.60;;
66298;SDS011;53098;47.658;8.578;2022-11-14T03:09:31;30.92;;;15.45;;
66298;SDS011;53098;47.658;8.578;2022-11-14T03:11:57;30.53;;;15.40;;
66298;SDS011;53098;47.658;8.578;2022-11-14T03:14:22;26.23;;;14.90;;
66298;SDS011;53098;47.658;8.578;2022-11-14T03:16:47;26.60;;;14.10;;
66298;SDS011;53098;47.658;8.578;2022-11-14T03:19:13;27.00;;;13.63;;
66298;SDS011;53098;47.658;8.578;2022-11-14T03:21:38;28.13;;;14.83;;
66298;SDS011;53098;47.658;8.578;2022-11-14T03:24:03;28.17;;;13.67;;
66298;SDS011;53098;47.658;8.578;2022-11-14T03:26:29;29.50;;;14.02;;
66298;SDS011;53098;47.658;8.578;2022-11-14T03:28:54;25.70;;;13.82;;
66298;SDS011;53098;47.658;8.578;2022-11-14T03:31:20;25.52;;;13.07;;
66298;SDS011;53098;47.658;8.578;2022-11-14T03:33:45;24.60;;;14.13;;
66298;SDS011;53098;47.658;8.578;2022-11-14T03:36:10;25.20;;;12.85;;
66298;SDS011;53098;47.658;8.578;2022-11-14T03:38:36;24.70;;;12.88;;
66298;SDS011;53098;47.658;8.578;2022-11-14T03:41:01;23.93;;;12.87;;
66298;SDS011;53098;47.658;8.578;2022-11-14T03:43:29;23.27;;;12.18;;
66298;SDS011;53098;47.658;8.578;2022-11-14T03:45:56;23.52;;;12.48;;
66298;SDS011;53098;47.658;8.578;2022-11-14T03:48:22;26.00;;;13.60;;
66298;SDS011;53098;47.658;8.578;2022-11-14T03:50:47;23.00;;;12.80;;
66298;SDS011;53098;47.658;8.578;2022-11-14T03:53:12;25.73;;;14.73;;
66298;SDS011;53098;47.658;8.578;2022-11-14T03:55:38;27.10;;;13.70;;
66298;SDS011;53098;47.658;8.578;2022-11-14T03:58:03;25.80;;;14.73;;
66298;SDS011;53098;47.658;8.578;2022-11-14T04:00:28;28.30;;;16.48;;
66298;SDS011;53098;47.658;8.578;2022-11-14T04:02:56;26.27;;;13.83;;
66298;SDS011;53098;47.658;8.578;2022-11-14T04:05:22;24.65;;;13.88;;
66298;SDS011;53098;47.658;8.578;2022-11-14T04:07:47;25.75;;;14.38;;
66298;SDS011;53098;47.658;8.578;2022-11-14T04:10:13;26.20;;;15.27;;
66298;SDS011;53098;47.658;8.578;2022-11-14T04:12:38;27.07;;;13.27;;
66298;SDS011;53098;47.658;8.578;2022-11-14T04:15:03;24.77;;;14.00;;
66298;SDS011;53098;47.658;8.578;2022-11-14T04:17:29;28.95;;;14.82;;
66298;SDS011;53098;47.658;8.578;2022-11-14T04:19:54;25.23;;;14.97;;
66298;SDS011;53098;47.658;8.578;2022-11-14T04:22:19;26.50;;;15.73;;
66298;SDS011;53098;47.658;8.578;2022-11-14T04:24:45;31.50;;;16.53;;
66298;SDS011;53098;47.658;8.578;2022-11-14T04:27:10;27.73;;;14.90;;
66298;SDS011;53098;47.658;8.578;2022-11-14T04:29:35;25.80;;;13.43;;
66298;SDS011;53098;47.658;8.578;2022-11-14T04:32:01;25.87;;;14.27;;
66298;SDS011;53098;47.658;8.578;2022-11-14T04:34:26;25.40;;;13.87;;
66298;SDS011;53098;47.658;8.578;2022-11-14T04:36:51;27.50;;;14.67;;
66298;SDS011;53098;47.658;8.578;2022-11-14T04:39:17;26.13;;;14.93;;
66298;SDS011;53098;47.658;8.578;2022-11-14T04:41:42;26.17;;;14.70;;
66298;SDS011;53098;47.658;8.578;2022-11-14T04:44:07;26.17;;;14.67;;
66298;SDS011;53098;47.658;8.578;2022-11-14T04:46:33;27.88;;;14.50;;
66298;SDS011;53098;47.658;8.578;2022-11-14T04:48:58;25.93;;;13.53;;
66298;SDS011;53098;47.658;8.578;2022-11-14T04:51:23;29.47;;;14.77;;
66298;SDS011;53098;47.658;8.578;2022-11-14T04:53:48;25.97;;;14.30;;
66298;SDS011;53098;47.658;8.578;2022-11-14T04:56:14;26.43;;;14.53;;
66298;SDS011;53098;47.658;8.578;2022-11-14T04:58:39;24.93;;;13.93;;
66298;SDS011;53098;47.658;8.578;2022-11-14T05:01:08;26.47;;;14.70;;
66298;SDS011;53098;47.658;8.578;2022-11-14T05:03:33;26.70;;;14.20;;
66298;SDS011;53098;47.658;8.578;2022-11-14T05:05:59;27.20;;;14.47;;
66298;SDS011;53098;47.658;8.578;2022-11-14T05:08:24;22.13;;;13.40;;
66298;SDS011;53098;47.658;8.578;2022-11-14T05:10:49;27.13;;;17.00;;
66298;SDS011;53098;47.658;8.578;2022-11-14T05:13:15;23.23;;;13.50;;
66298;SDS011;53098;47.658;8.578;2022-11-14T05:15:40;25.90;;;15.23;;
66298;SDS011;53098;47.658;8.578;2022-11-14T05:18:05;23.13;;;13.67;;
66298;SDS011;53098;47.658;8.578;2022-11-14T05:20:31;25.00;;;13.87;;
66298;SDS011;53098;47.658;8.578;2022-11-14T05:22:56;25.70;;;13.25;;
66298;SDS011;53098;47.658;8.578;2022-11-14T05:25:21;24.77;;;13.77;;
66298;SDS011;53098;47.658;8.578;2022-11-14T05:27:47;22.88;;;13.00;;
66298;SDS011;53098;47.658;8.578;2022-11-14T05:30:12;24.70;;;12.38;;
66298;SDS011;53098;47.658;8.578;2022-11-14T05:32:38;25.70;;;13.85;;
66298;SDS011;53098;47.658;8.578;2022-11-14T05:35:03;27.83;;;14.57;;
66298;SDS011;53098;47.658;8.578;2022-11-14T05:37:29;24.40;;;13.32;;
66298;SDS011;53098;47.658;8.578;2022-11-14T05:39:54;25.37;;;13.77;;
66298;SDS011;53098;47.658;8.578;2022-11-14T05:42:19;25.30;;;13.20;;
66298;SDS011;53098;47.658;8.578;2022-11-14T05:44:45;24.45;;;13.13;;
66298;SDS011;53098;47.658;8.578;2022-11-14T05:47:10;21.83;;;11.03;;
66298;SDS011;53098;47.658;8.578;2022-11-14T05:49:35;19.38;;;11.20;;
66298;SDS011;53098;47.658;8.578;2022-11-14T05:52:01;23.95;;;13.15;;
66298;SDS011;53098;47.658;8.578;2022-11-14T05:54:26;22.58;;;11.68;;
66298;SDS011;53098;47.658;8.578;2022-11-14T05:56:51;19.33;;;11.10;;
66298;SDS011;53098;47.658;8.578;2022-11-14T05:59:17;20.83;;;10.53;;
66298;SDS011;53098;47.658;8.578;2022-11-14T06:01:42;22.77;;;11.67;;
66298;SDS011;53098;47.658;8.578;2022-11-14T06:04:07;20.17;;;10.83;;
66298;SDS011;53098;47.658;8.578;2022-11-14T06:06:33;20.70;;;10.93;;
66298;SDS011;53098;47.658;8.578;2022-11-14T06:08:58;20.27;;;11.70;;
66298;SDS011;53098;47.658;8.578;2022-11-14T06:11:23;19.40;;;11.65;;
66298;SDS011;53098;47.658;8.578;2022-11-14T06:13:49;20.37;;;12.33;;
66298;SDS011;53098;47.658;8.578;2022-11-14T06:16:15;22.17;;;11.27;;
66298;SDS011;53098;47.658;8.578;2022-11-14T06:18:41;19.27;;;10.85;;
66298;SDS011;53098;47.658;8.578;2022-11-14T06:21:08;20.45;;;11.57;;
66298;SDS011;53098;47.658;8.578;2022-11-14T06:23:34;19.25;;;10.95;;
66298;SDS011;53098;47.658;8.578;2022-11-14T06:26:00;21.43;;;11.93;;
66298;SDS011;53098;47.658;8.578;2022-11-14T06:28:26;19.48;;;11.23;;
66298;SDS011;53098;47.658;8.578;2022-11-14T06:30:55;21.30;;;12.13;;
66298;SDS011;53098;47.658;8.578;2022-11-14T06:33:20;21.50;;;11.75;;
66298;SDS011;53098;47.658;8.578;2022-11-14T06:35:45;22.43;;;13.00;;
66298;SDS011;53098;47.658;8.578;2022-11-14T06:38:10;24.60;;;13.07;;
66298;SDS011;53098;47.658;8.578;2022-11-14T06:40:36;24.43;;;13.53;;
66298;SDS011;53098;47.658;8.578;2022-11-14T06:43:01;24.75;;;14.00;;
66298;SDS011;53098;47.658;8.578;2022-11-14T06:45:26;26.47;;;13.70;;
66298;SDS011;53098;47.658;8.578;2022-11-14T06:47:52;22.23;;;12.60;;
66298;SDS011;53098;47.658;8.578;2022-11-14T06:50:17;25.33;;;12.73;;
66298;SDS011;53098;47.658;8.578;2022-11-14T06:52:42;26.05;;;13.35;;
66298;SDS011;53098;47.658;8.578;2022-11-14T06:55:08;25.17;;;13.07;;
66298;SDS011;53098;47.658;8.578;2022-11-14T06:57:33;25.38;;;12.93;;
66298;SDS011;53098;47.658;8.578;2022-11-14T06:59:58;25.35;;;12.90;;
66298;SDS011;53098;47.658;8.578;2022-11-14T07:02:24;22.58;;;12.32;;
66298;SDS011;53098;47.658;8.578;2022-11-14T07:04:50;25.13;;;13.52;;
66298;SDS011;53098;47.658;8.578;2022-11-14T07:07:16;25.50;;;12.65;;
66298;SDS011;53098;47.658;8.578;2022-11-14T07:09:41;20.45;;;11.80;;
66298;SDS011;53098;47.658;8.578;2022-11-14T07:12:10;21.42;;;11.77;;
66298;SDS011;53098;47.658;8.578;2022-11-14T07:14:37;21.50;;;11.52;;
66298;SDS011;53098;47.658;8.578;2022-11-14T07:17:03;20.52;;;12.07;;
66298;SDS011;53098;47.658;8.578;2022-11-14T07:19:28;22.75;;;13.25;;
66298;SDS011;53098;47.658;8.578;2022-11-14T07:22:00;22.10;;;12.88;;
66298;SDS011;53098;47.658;8.578;2022-11-14T07:24:26;23.17;;;13.25;;
66298;SDS011;53098;47.658;8.578;2022-11-14T07:26:52;22.35;;;12.23;;
66298;SDS011;53098;47.658;8.578;2022-11-14T07:29:17;23.05;;;13.30;;
66298;SDS011;53098;47.658;8.578;2022-11-14T07:31:43;23.98;;;12.70;;
66298;SDS011;53098;47.658;8.578;2022-11-14T07:34:08;23.15;;;12.55;;
66298;SDS011;53098;47.658;8.578;2022-11-14T07:36:35;23.15;;;12.80;;
66298;SDS011;53098;47.658;8.578;2022-11-14T07:39:01;23.80;;;13.07;;
66298;SDS011;53098;47.658;8.578;2022-11-14T07:41:27;23.73;;;13.48;;
66298;SDS011;53098;47.658;8.578;2022-11-14T07:43:52;23.02;;;12.40;;
66298;SDS011;53098;47.658;8.578;2022-11-14T07:46:18;25.00;;;13.52;;
66298;SDS011;53098;47.658;8.578;2022-11-14T07:48:43;23.88;;;13.60;;
66298;SDS011;53098;47.658;8.578;2022-11-14T07:51:12;21.02;;;12.45;;
66298;SDS011;53098;47.658;8.578;2022-11-14T07:53:38;21.30;;;12.45;;
66298;SDS011;53098;47.658;8.578;2022-11-14T07:56:05;20.20;;;11.23;;
66298;SDS011;53098;47.658;8.578;2022-11-14T07:58:30;22.35;;;12.50;;
66298;SDS011;53098;47.658;8.578;2022-11-14T08:00:59;24.90;;;13.03;;
66298;SDS011;53098;47.658;8.578;2022-11-14T08:03:24;23.42;;;13.45;;
66298;SDS011;53098;47.658;8.578;2022-11-14T08:05:50;23.37;;;12.77;;
66298;SDS011;53098;47.658;8.578;2022-11-14T08:08:15;22.53;;;13.37;;
66298;SDS011;53098;47.658;8.578;2022-11-14T08:10:40;25.60;;;13.27;;
66298;SDS011;53098;47.658;8.578;2022-11-14T08:13:06;21.57;;;12.43;;
66298;SDS011;53098;47.658;8.578;2022-11-14T08:15:31;23.23;;;12.87;;
66298;SDS011;53098;47.658;8.578;2022-11-14T08:17:57;21.90;;;12.27;;
66298;SDS011;53098;47.658;8.578;2022-11-14T08:20:22;21.77;;;12.20;;
66298;SDS011;53098;47.658;8.578;2022-11-14T08:22:48;19.85;;;11.57;;
66298;SDS011;53098;47.658;8.578;2022-11-14T08:25:13;21.23;;;10.85;;
66298;SDS011;53098;47.658;8.578;2022-11-14T08:27:38;20.02;;;10.90;;
66298;SDS011;53098;47.658;8.578;2022-11-14T08:30:04;19.60;;;11.53;;
66298;SDS011;53098;47.658;8.578;2022-11-14T08:32:29;21.02;;;11.90;;
66298;SDS011;53098;47.658;8.578;2022-11-14T08:34:55;21.98;;;11.25;;
66298;SDS011;53098;47.658;8.578;2022-11-14T08:37:20;20.63;;;12.23;;
66298;SDS011;53098;47.658;8.578;2022-11-14T08:39:47;21.00;;;11.57;;
66298;SDS011;53098;47.658;8.578;2022-11-14T08:42:13;20.83;;;12.18;;
66298;SDS011;53098;47.658;8.578;2022-11-14T08:44:38;21.90;;;11.50;;
66298;SDS011;53098;47.658;8.578;2022-11-14T08:47:04;19.40;;;11.45;;
66298;SDS011;53098;47.658;8.578;2022-11-14T08:49:29;21.50;;;12.50;;
66298;SDS011;53098;47.658;8.578;2022-11-14T08:51:55;21.70;;;12.18;;
66298;SDS011;53098;47.658;8.578;2022-11-14T08:54:20;22.50;;;12.15;;
66298;SDS011;53098;47.658;8.578;2022-11-14T08:56:46;22.92;;;12.80;;
66298;SDS011;53098;47.658;8.578;2022-11-14T08:59:11;19.83;;;11.88;;
66298;SDS011;53098;47.658;8.578;2022-11-14T09:01:36;21.27;;;11.70;;
66298;SDS011;53098;47.658;8.578;2022-11-14T09:04:02;19.00;;;11.47;;
66298;SDS011;53098;47.658;8.578;2022-11-14T09:06:27;21.35;;;11.90;;
66298;SDS011;53098;47.658;8.578;2022-11-14T09:08:53;20.42;;;11.40;;
66298;SDS011;53098;47.658;8.578;2022-11-14T09:11:18;21.10;;;11.53;;
66298;SDS011;53098;47.658;8.578;2022-11-14T09:13:43;22.63;;;12.43;;
66298;SDS011;53098;47.658;8.578;2022-11-14T09:16:09;20.25;;;12.02;;
66298;SDS011;53098;47.658;8.578;2022-11-14T09:18:34;20.17;;;11.57;;
66298;SDS011;53098;47.658;8.578;2022-11-14T09:21:03;20.98;;;11.85;;
66298;SDS011;53098;47.658;8.578;2022-11-14T09:23:29;20.35;;;11.88;;
66298;SDS011;53098;47.658;8.578;2022-11-14T09:25:54;19.50;;;11.50;;
66298;SDS011;53098;47.658;8.578;2022-11-14T09:28:19;21.40;;;11.77;;
66298;SDS011;53098;47.658;8.578;2022-11-14T09:30:45;21.38;;;12.10;;
66298;SDS011;53098;47.658;8.578;2022-11-14T09:33:10;20.70;;;10.68;;
66298;SDS011;53098;47.658;8.578;2022-11-14T09:35:36;18.98;;;10.80;;
66298;SDS011;53098;47.658;8.578;2022-11-14T09:38:02;20.27;;;10.73;;
66298;SDS011;53098;47.658;8.578;2022-11-14T09:40:27;18.77;;;11.00;;
66298;SDS011;53098;47.658;8.578;2022-11-14T09:45:21;19.27;;;10.88;;
66298;SDS011;53098;47.658;8.578;2022-11-14T09:47:47;19.95;;;11.05;;
66298;SDS011;53098;47.658;8.578;2022-11-14T09:50:16;19.73;;;10.73;;
66298;SDS011;53098;47.658;8.578;2022-11-14T09:52:43;18.98;;;11.13;;
66298;SDS011;53098;47.658;8.578;2022-11-14T09:55:17;19.20;;;10.73;;
66298;SDS011;53098;47.658;8.578;2022-11-14T09:57:43;18.88;;;10.63;;
66298;SDS011;53098;47.658;8.578;2022-11-14T10:00:14;17.08;;;9.50;;
66298;SDS011;53098;47.658;8.578;2022-11-14T10:10:34;18.10;;;10.60;;
66298;SDS011;53098;47.658;8.578;2022-11-14T10:20:50;17.03;;;9.60;;
66298;SDS011;53098;47.658;8.578;2022-11-14T10:25:55;17.45;;;9.55;;
66298;SDS011;53098;47.658;8.578;2022-11-14T10:41:37;15.95;;;8.43;;
66298;SDS011;53098;47.658;8.578;2022-11-14T10:44:03;15.70;;;8.13;;
66298;SDS011;53098;47.658;8.578;2022-11-14T10:46:44;13.43;;;7.38;;
66298;SDS011;53098;47.658;8.578;2022-11-14T10:49:22;14.57;;;7.80;;
66298;SDS011;53098;47.658;8.578;2022-11-14T10:51:49;14.35;;;8.07;;
66298;SDS011;53098;47.658;8.578;2022-11-14T10:54:25;15.50;;;9.43;;
66298;SDS011;53098;47.658;8.578;2022-11-14T10:56:53;14.77;;;8.27;;
66298;SDS011;53098;47.658;8.578;2022-11-14T10:59:19;16.23;;;8.80;;
66298;SDS011;53098;47.658;8.578;2022-11-14T11:09:32;13.70;;;7.10;;
66298;SDS011;53098;47.658;8.578;2022-11-14T11:11:59;14.23;;;7.68;;
66298;SDS011;53098;47.658;8.578;2022-11-14T11:14:24;14.10;;;7.68;;
66298;SDS011;53098;47.658;8.578;2022-11-14T11:17:06;13.98;;;7.75;;
66298;SDS011;53098;47.658;8.578;2022-11-14T11:19:31;14.70;;;8.23;;
66298;SDS011;53098;47.658;8.578;2022-11-14T11:21:57;14.60;;;7.43;;
66298;SDS011;53098;47.658;8.578;2022-11-14T11:24:30;14.02;;;7.68;;
66298;SDS011;53098;47.658;8.578;2022-11-14T11:29:40;19.20;;;11.52;;
66298;SDS011;53098;47.658;8.578;2022-11-14T11:32:09;18.42;;;9.70;;
66298;SDS011;53098;47.658;8.578;2022-11-14T11:34:36;14.43;;;7.43;;
66298;SDS011;53098;47.658;8.578;2022-11-14T11:37:44;14.35;;;7.85;;
66298;SDS011;53098;47.658;8.578;2022-11-14T11:39:54;12.90;;;6.88;;
66298;SDS011;53098;47.658;8.578;2022-11-14T11:42:25;11.75;;;7.10;;
66298;SDS011;53098;47.658;8.578;2022-11-14T11:44:56;11.30;;;6.03;;
66298;SDS011;53098;47.658;8.578;2022-11-14T11:47:23;11.27;;;5.57;;
66298;SDS011;53098;47.658;8.578;2022-11-14T11:49:52;11.27;;;5.03;;
66298;SDS011;53098;47.658;8.578;2022-11-14T11:54:46;11.13;;;6.03;;
66298;SDS011;53098;47.658;8.578;2022-11-14T11:57:15;11.48;;;6.18;;
66298;SDS011;53098;47.658;8.578;2022-11-14T11:59:45;12.18;;;5.95;;
66298;SDS011;53098;47.658;8.578;2022-11-14T12:02:22;12.60;;;6.72;;
66298;SDS011;53098;47.658;8.578;2022-11-14T12:04:48;12.80;;;7.30;;
66298;SDS011;53098;47.658;8.578;2022-11-14T12:07:18;16.42;;;8.18;;
66298;SDS011;53098;47.658;8.578;2022-11-14T12:09:45;11.48;;;6.80;;
66298;SDS011;53098;47.658;8.578;2022-11-14T12:12:13;14.18;;;7.32;;
66298;SDS011;53098;47.658;8.578;2022-11-14T12:14:50;13.25;;;7.40;;
66298;SDS011;53098;47.658;8.578;2022-11-14T12:17:23;14.43;;;7.00;;
66298;SDS011;53098;47.658;8.578;2022-11-14T12:20:10;12.20;;;6.03;;
66298;SDS011;53098;47.658;8.578;2022-11-14T12:22:41;11.63;;;5.68;;
66298;SDS011;53098;47.658;8.578;2022-11-14T12:25:17;13.48;;;5.88;;
66298;SDS011;53098;47.658;8.578;2022-11-14T12:32:57;13.68;;;7.72;;
66298;SDS011;53098;47.658;8.578;2022-11-14T12:35:31;13.52;;;7.03;;
66298;SDS011;53098;47.658;8.578;2022-11-14T12:37:57;16.85;;;7.57;;
66298;SDS011;53098;47.658;8.578;2022-11-14T12:42:55;18.58;;;8.07;;
66298;SDS011;53098;47.658;8.578;2022-11-14T12:48:21;17.25;;;8.70;;
66298;SDS011;53098;47.658;8.578;2022-11-14T12:50:47;15.48;;;8.60;;
66298;SDS011;53098;47.658;8.578;2022-11-14T12:56:04;14.63;;;8.00;;
66298;SDS011;53098;47.658;8.578;2022-11-14T13:11:34;19.40;;;8.57;;
66298;SDS011;53098;47.658;8.578;2022-11-14T13:14:00;17.55;;;8.93;;
66298;SDS011;53098;47.658;8.578;2022-11-14T13:16:29;15.35;;;8.20;;
66298;SDS011;53098;47.658;8.578;2022-11-14T13:21:25;16.30;;;8.80;;
66298;SDS011;53098;47.658;8.578;2022-11-14T13:31:20;13.98;;;7.95;;
66298;SDS011;53098;47.658;8.578;2022-11-14T13:33:49;15.90;;;9.45;;
66298;SDS011;53098;47.658;8.578;2022-11-14T13:46:49;13.65;;;7.88;;
66298;SDS011;53098;47.658;8.578;2022-11-14T13:51:45;17.02;;;8.30;;
66298;SDS011;53098;47.658;8.578;2022-11-14T13:54:11;15.50;;;9.23;;
66298;SDS011;53098;47.658;8.578;2022-11-14T13:56:52;16.90;;;8.23;;
66298;SDS011;53098;47.658;8.578;2022-11-14T13:59:40;15.77;;;8.18;;
66298;SDS011;53098;47.658;8.578;2022-11-14T14:22:07;17.25;;;7.95;;
66298;SDS011;53098;47.658;8.578;2022-11-14T14:27:15;12.83;;;7.03;;
66298;SDS011;53098;47.658;8.578;2022-11-14T14:29:46;15.13;;;7.43;;
66298;SDS011;53098;47.658;8.578;2022-11-14T14:32:16;20.83;;;8.85;;
66298;SDS011;53098;47.658;8.578;2022-11-14T14:34:42;15.57;;;8.52;;
66298;SDS011;53098;47.658;8.578;2022-11-14T14:37:18;16.30;;;7.77;;
66298;SDS011;53098;47.658;8.578;2022-11-14T14:39:57;13.20;;;8.05;;
66298;SDS011;53098;47.658;8.578;2022-11-14T14:42:23;16.63;;;6.03;;
66298;SDS011;53098;47.658;8.578;2022-11-14T14:44:48;12.63;;;6.13;;
66298;SDS011;53098;47.658;8.578;2022-11-14T14:47:33;14.70;;;7.82;;
66298;SDS011;53098;47.658;8.578;2022-11-14T14:50:03;18.80;;;9.52;;
66298;SDS011;53098;47.658;8.578;2022-11-14T14:52:35;14.65;;;8.02;;
66298;SDS011;53098;47.658;8.578;2022-11-14T14:55:01;13.30;;;7.22;;
66298;SDS011;53098;47.658;8.578;2022-11-14T14:57:27;14.38;;;7.05;;
66298;SDS011;53098;47.658;8.578;2022-11-14T15:02:24;13.02;;;5.70;;
66298;SDS011;53098;47.658;8.578;2022-11-14T15:04:49;9.85;;;4.85;;
66298;SDS011;53098;47.658;8.578;2022-11-14T15:07:22;8.90;;;4.60;;
66298;SDS011;53098;47.658;8.578;2022-11-14T15:09:52;10.27;;;5.22;;
66298;SDS011;53098;47.658;8.578;2022-11-14T15:12:18;13.43;;;6.30;;
66298;SDS011;53098;47.658;8.578;2022-11-14T15:14:43;9.20;;;3.85;;
66298;SDS011;53098;47.658;8.578;2022-11-14T15:17:09;10.25;;;3.97;;
66298;SDS011;53098;47.658;8.578;2022-11-14T15:19:39;11.30;;;4.15;;
66298;SDS011;53098;47.658;8.578;2022-11-14T15:24:30;7.77;;;3.87;;
66298;SDS011;53098;47.658;8.578;2022-11-14T15:26:55;11.10;;;3.88;;
66298;SDS011;53098;47.658;8.578;2022-11-14T15:31:51;7.80;;;2.77;;
66298;SDS011;53098;47.658;8.578;2022-11-14T15:39:33;11.40;;;4.95;;
66298;SDS011;53098;47.658;8.578;2022-11-14T15:44:39;9.55;;;4.43;;
66298;SDS011;53098;47.658;8.578;2022-11-14T15:47:08;19.55;;;9.32;;
66298;SDS011;53098;47.658;8.578;2022-11-14T15:49:34;19.55;;;9.50;;
66298;SDS011;53098;47.658;8.578;2022-11-14T15:52:00;13.25;;;7.32;;
66298;SDS011;53098;47.658;8.578;2022-11-14T15:54:27;16.55;;;7.03;;
66298;SDS011;53098;47.658;8.578;2022-11-14T15:56:54;11.65;;;6.43;;
66298;SDS011;53098;47.658;8.578;2022-11-14T15:59:19;12.65;;;6.25;;
66298;SDS011;53098;47.658;8.578;2022-11-14T16:01:46;14.60;;;5.78;;
66298;SDS011;53098;47.658;8.578;2022-11-14T16:04:14;10.85;;;5.15;;
66298;SDS011;53098;47.658;8.578;2022-11-14T16:06:40;10.38;;;5.43;;
66298;SDS011;53098;47.658;8.578;2022-11-14T16:09:05;10.05;;;5.00;;
66298;SDS011;53098;47.658;8.578;2022-11-14T16:11:30;9.98;;;4.47;;
66298;SDS011;53098;47.658;8.578;2022-11-14T16:13:56;6.13;;;2.65;;
66298;SDS011;53098;47.658;8.578;2022-11-14T16:16:21;8.25;;;2.90;;
66298;SDS011;53098;47.658;8.578;2022-11-14T16:18:46;9.97;;;2.63;;
66298;SDS011;53098;47.658;8.578;2022-11-14T16:21:12;7.72;;;2.72;;
66298;SDS011;53098;47.658;8.578;2022-11-14T16:23:40;8.40;;;3.35;;
66298;SDS011;53098;47.658;8.578;2022-11-14T16:26:06;6.03;;;2.80;;
66298;SDS011;53098;47.658;8.578;2022-11-14T16:28:31;8.13;;;3.37;;
66298;SDS011;53098;47.658;8.578;2022-11-14T16:30:56;9.02;;;3.90;;
66298;SDS011;53098;47.658;8.578;2022-11-14T16:33:23;10.18;;;4.18;;
66298;SDS011;53098;47.658;8.578;2022-11-14T16:35:48;9.18;;;3.75;;
66298;SDS011;53098;47.658;8.578;2022-11-14T16:38:13;8.07;;;3.20;;
66298;SDS011;53098;47.658;8.578;2022-11-14T16:40:39;10.20;;;4.80;;